ADDS METAR Data INFO
IDs: Format: Raw Decoded Include TAF

Data at: 1603 UTC 12 Dec 2017

KIDP 121555Z AUTO 01012KT 10SM CLR 02/M07 A3040 RMK AO2 T00161069
KIDP 121535Z AUTO 35011KT 10SM CLR 01/M06 A3040 RMK AO2 T00121062
KIDP 121515Z AUTO 36010KT 10SM CLR 01/M05 A3040 RMK AO2 T00071055
KIDP 121455Z AUTO 35012KT 10SM CLR 00/M06 A3040 RMK AO2 T00011060
KIDP 121435Z AUTO 34011KT 10SM CLR M01/M05 A3040 RMK AO2 T10091054
KIDP 121415Z AUTO 33007KT 10SM CLR M03/M06 A3040 RMK AO2 T10271060
KIDP 121355Z AUTO 33006KT 10SM CLR M03/M07 A3040 RMK AO2 T10321066
KIDP 121335Z AUTO 34007KT 10SM CLR M03/M07 A3039 RMK AO2 T10281069
KIDP 121315Z AUTO 30004KT 10SM CLR M02/M06 A3038 RMK AO2 T10181060
KIDP 121255Z AUTO 32006KT 10SM CLR M02/M06 A3038 RMK AO2 T10241062
KIDP 121235Z AUTO 33008KT 10SM CLR M02/M05 A3036 RMK AO2 T10161052
KIDP 121215Z AUTO 35010KT 10SM CLR M01/M05 A3036 RMK AO2 T10111053
KIDP 121155Z AUTO 34010KT 10SM CLR 00/M05 A3036 RMK AO2 T10051051 10054 21010
KIDP 121135Z AUTO 34010KT 10SM CLR M01/M04 A3035 RMK AO2 T10091044
KIDP 121115Z AUTO 34010KT 10SM CLR 00/M04 A3035 RMK AO2 T10041042
KIDP 121055Z AUTO 33009KT 10SM CLR 00/M04 A3036 RMK AO2 T10041041
KIDP 121035Z AUTO 32007KT 10SM CLR 00/M04 A3036 RMK AO2 T10031041
KIDP 121015Z AUTO 33008KT 10SM CLR 00/M04 A3036 RMK AO2 T00031038
KIDP 120955Z AUTO 34009KT 10SM CLR 01/M03 A3035 RMK AO2 T00081034
KIDP 120935Z AUTO 35010KT 10SM CLR 01/M03 A3035 RMK AO2 T00141031
KIDP 120915Z AUTO 34011KT 10SM CLR 02/M03 A3035 RMK AO2 T00201030
KIDP 120855Z AUTO 35012KT 10SM CLR 03/M03 A3034 RMK AO2 T00271029
KIDP 120835Z AUTO 34016KT 10SM CLR 03/M03 A3035 RMK AO2 T00301027
KIDP 120815Z AUTO 34014G19KT 10SM CLR 03/M03 A3034 RMK AO2 T00331026
KIDP 120755Z AUTO 34012KT 10SM CLR 03/M03 A3034 RMK AO2 T00321028
KIDP 120735Z AUTO 34011KT 10SM CLR 04/M03 A3033 RMK AO2 T00361027
KIDP 120715Z AUTO 34015G20KT 10SM CLR 04/M03 A3033 RMK AO2 T00441025
KIDP 120655Z AUTO 35017G24KT 10SM SCT036 05/M02 A3032 RMK AO2 T00501023
KIDP 120635Z AUTO 35015KT 10SM SCT036 05/M02 A3032 RMK AO2 T00511019
KIDP 120615Z AUTO 35018G23KT 10SM CLR 05/M02 A3032 RMK AO2 T00521017
KIDP 120555Z AUTO 34015G22KT 10SM SCT037 06/M01 A3031 RMK AO2 T00551010 10121 20053
KIDP 120535Z AUTO 35015G23KT 10SM SCT037 06/M01 A3030 RMK AO2 T00581007
KIDP 120515Z AUTO 34016KT 10SM SCT037 06/M01 A3030 RMK AO2 T00611007
KIDP 120455Z AUTO 34016KT 10SM CLR 06/M01 A3029 RMK AO2 T00641008
KIDP 120435Z AUTO 34018KT 10SM CLR 07/M01 A3028 RMK AO2 T00691009
KIDP 120415Z AUTO 34019G23KT 10SM CLR 07/M01 A3026 RMK AO2 T00721013
KIDP 120355Z AUTO 33018G21KT 10SM CLR 07/M02 A3025 RMK AO2 T00741020
KIDP 120335Z AUTO 33012G18KT 10SM CLR 07/M02 A3024 RMK AO2 T00721023
KIDP 120310Z AUTO 34014KT 10SM CLR 08/M02 A3023 RMK AO2 T00821022
KIDP 120255Z AUTO 34015KT 10SM CLR 09/M02 A3022 RMK AO2 T00861023
KIDP 120235Z AUTO 34013G22KT 10SM CLR 09/M03 A3021 RMK AO2 T00881025
KIDP 120215Z AUTO 33013KT 10SM CLR 10/M03 A3020 RMK AO2 T00981026
KIDP 120155Z AUTO 33014G20KT 10SM CLR 10/M03 A3019 RMK AO2 T01011027
KIDP 120135Z AUTO 33016G21KT 10SM CLR 11/M03 A3019 RMK AO2 T01051030
KIDP 120115Z AUTO 34019G24KT 10SM CLR 11/M03 A3018 RMK AO2 T01101030
KIDP 120055Z AUTO 34018G23KT 10SM CLR 11/M03 A3017 RMK AO2 T01111030
KIDP 120035Z AUTO 34016G22KT 10SM CLR 11/M03 A3015 RMK AO2 T01141031
KIDP 120015Z AUTO 34016G22KT 10SM CLR 11/M03 A3014 RMK AO2 T01141034
KIDP 112355Z AUTO 34018G23KT 10SM CLR 12/M04 A3014 RMK AO2 T01221042 10207 20121 402071010
KIDP 112335Z AUTO 34023G27KT 10SM CLR 13/M05 A3013 RMK AO2 T01291050
KIDP 112315Z AUTO 34017G21KT 10SM CLR 14/M07 A3011 RMK AO2 T01371066
KIDP 112250Z AUTO 32018G27KT 10SM CLR 15/M07 A3010 RMK AO2 T01471073
KIDP 112235Z AUTO 33019KT 10SM CLR 15/M07 A3009 RMK AO2 T01511072
KIDP 112215Z AUTO 33016G26KT 10SM CLR 15/M08 A3009 RMK AO2 T01551075
KIDP 112155Z AUTO 32019G30KT 10SM CLR 16/M09 A3008 RMK AO2 T01621086
KIDP 112135Z AUTO 33024G31KT 10SM CLR 17/M09 A3007 RMK AO2 T01741088
KIDP 112115Z AUTO 32024G32KT 10SM CLR 18/M09 A3006 RMK AO2 T01801093
KIDP 112055Z AUTO 34017KT 10SM CLR 19/M08 A3005 RMK AO2 T01871084
KIDP 112035Z AUTO 32020G27KT 10SM CLR 19/M09 A3004 RMK AO2 T01941089
KIDP 112015Z AUTO 33021KT 10SM CLR 20/M09 A3003 RMK AO2 T02001089
KIDP 111955Z AUTO 33020G29KT 10SM CLR 20/M09 A3003 RMK AO2 T02011089
KIDP 111935Z AUTO 33029G33KT 10SM CLR 20/M09 A3003 RMK AO2 T02041092
KIDP 111915Z AUTO 33021G28KT 10SM CLR 20/M07 A3003 RMK AO2 T02031073
KIDP 111855Z AUTO 33014G19KT 10SM CLR 19/M08 A3004 RMK AO2 T01911081
KIDP 111835Z AUTO 32018KT 10SM CLR 19/M08 A3005 RMK AO2 T01911084
KIDP 111815Z AUTO 35009KT 10SM CLR 18/M08 A3006 RMK AO2 T01821078
KIDP 111755Z AUTO 32013KT 10SM CLR 18/M08 A3007 RMK AO2 T01781080 10180 20002
KIDP 111735Z AUTO 33008KT 10SM CLR 17/M07 A3008 RMK AO2 T01661072
KIDP 111715Z AUTO 30013KT 10SM CLR 15/M08 A3010 RMK AO2 T01541081
KIDP 111655Z AUTO 31014KT 10SM CLR 15/M08 A3010 RMK AO2 T01491084
KIDP 111635Z AUTO 30011KT 10SM CLR 14/M08 A3010 RMK AO2 T01431076
KIDP 111615Z AUTO 30013KT 10SM CLR 13/M08 A3010 RMK AO2 T01291083
KIDP 111555Z AUTO 31010KT 10SM CLR 12/M08 A3011 RMK AO2 T01201076
KIDP 111535Z AUTO 29007KT 10SM CLR 10/M07 A3011 RMK AO2 T00991074
KIDP 111515Z AUTO 28008KT 10SM CLR 08/M07 A3011 RMK AO2 T00841067
KIDP 111455Z AUTO 26006KT 10SM CLR 08/M07 A3010 RMK AO2 T00751071
KIDP 111435Z AUTO 25007KT 10SM CLR 05/M07 A3009 RMK AO2 T00541066
KIDP 111415Z AUTO 23009KT 10SM CLR 03/M06 A3009 RMK AO2 T00321058
KIDP 111355Z AUTO 22009KT 10SM CLR 02/M07 A3010 RMK AO2 T00181067
KIDP 111335Z AUTO 22007KT 10SM CLR 01/M07 A3011 RMK AO2 T00081073
KIDP 111315Z AUTO 22006KT 10SM CLR 01/M07 A3012 RMK AO2 T00091070
KIDP 111255Z AUTO 23009KT 10SM CLR 01/M07 A3011 RMK AO2 T00091065
KIDP 111235Z AUTO 26007KT 10SM CLR 02/M07 A3011 RMK AO2 T00171068
KIDP 111215Z AUTO 26008KT 10SM CLR 03/M07 A3011 RMK AO2 T00261065
KIDP 111155Z AUTO 24010KT 10SM CLR 02/M06 A3010 RMK AO2 T00251058 10033 21010
KIDP 111135Z AUTO 23009KT 10SM CLR 01/M06 A3011 RMK AO2 T00131057
KIDP 111115Z AUTO 23008KT 10SM CLR 00/M06 A3011 RMK AO2 T00051065
KIDP 111055Z AUTO 24006KT 10SM CLR 03/M07 A3011 RMK AO2 T00271070
KIDP 111035Z AUTO 23005KT 10SM CLR 01/M06 A3011 RMK AO2 T00151062
KIDP 111015Z AUTO 22007KT 10SM CLR 01/M06 A3012 RMK AO2 T00091061
KIDP 110955Z AUTO 22006KT 10SM CLR 02/M06 A3013 RMK AO2 T00161062
KIDP 110935Z AUTO 22006KT 10SM CLR 01/M06 A3014 RMK AO2 T00061063
KIDP 110915Z AUTO 23006KT 10SM CLR 01/M06 A3014 RMK AO2 T00081063
KIDP 110855Z AUTO 22006KT 10SM CLR 01/M06 A3015 RMK AO2 T00091064
KIDP 110835Z AUTO 24003KT 10SM CLR 02/M06 A3015 RMK AO2 T00241062
KIDP 110815Z AUTO 23005KT 10SM CLR 02/M06 A3016 RMK AO2 T00231061
KIDP 110755Z AUTO 23005KT 10SM CLR 01/M06 A3017 RMK AO2 T00071058
KIDP 110735Z AUTO 22006KT 10SM CLR 01/M06 A3017 RMK AO2 T00151060
KIDP 110715Z AUTO 22005KT 10SM CLR 02/M06 A3017 RMK AO2 T00221059
KIDP 110655Z AUTO 23006KT 10SM CLR 00/M06 A3018 RMK AO2
KIDP 110635Z AUTO 22006KT 10SM CLR 00/M07 A3019 RMK AO2 T10001071
KIDP 110615Z AUTO 20005KT 10SM CLR 02/M06 A3019 RMK AO2 T00221065
KIDP 110555Z AUTO 00000KT 10SM CLR 02/M06 A3019 RMK AO2 T00191062 10124 20014
KIDP 110535Z AUTO 22003KT 10SM CLR 03/M06 A3019 RMK AO2 T00331060
KIDP 110515Z AUTO 20003KT 10SM CLR 04/M06 A3019 RMK AO2 T00421061
KIDP 110455Z AUTO 00000KT 10SM CLR 04/M06 A3020 RMK AO2 T00411060
KIDP 110435Z AUTO 23003KT 10SM CLR 03/M06 A3020 RMK AO2 T00291058
KIDP 110415Z AUTO 23004KT 10SM CLR 03/M05 A3020 RMK AO2 T00281055